This is the latest recevied weather packets stored in our database for station/object G7GFU-13. If no packets are shown the sender has not sent any weather packets the latest 10 day(s).
| Time | Temp. | Humidity | Pressure | Rain* | Wind** | Luminosity | Snow |
|---|---|---|---|---|---|---|---|
| 1777535643 | 13.89° C | 58% | 1024.1 hPa | 0 mm | - | - | - |
| 1777532943 | 11.11° C | 67% | 1024.3 hPa | 0 mm | - | - | - |
| 1777530963 | 11.11° C | 68% | 1024.4 hPa | 0 mm | - | - | - |
| 1777526823 | 7.22° C | 79% | 1024.6 hPa | 0 mm | - | - | - |
| 1777525338 | 7.22° C | 78% | 1024.7 hPa | 0 mm | - | - | - |
| 1777523763 | 7.22° C | 76% | 1024.8 hPa | 0 mm | - | - | - |
| 1777518543 | 7.78° C | 73% | 1025 hPa | 0 mm | - | - | - |
| 1777517103 | 7.78° C | 73% | 1025.2 hPa | 0 mm | - | - | - |
| 1777510444 | 8.33° C | 66% | 1025.7 hPa | 0 mm | - | - | - |
| 1777507204 | 8.89° C | 62% | 1026.3 hPa | 0 mm | - | - | - |
| 1777506843 | 8.89° C | 61% | 1026.4 hPa | 0 mm | - | - | - |
| 1777506303 | 8.89° C | 61% | 1026.4 hPa | 0 mm | - | - | - |
| 1777504683 | 9.44° C | 59% | 1026.5 hPa | 0 mm | - | - | - |
| 1777504143 | 9.44° C | 58% | 1026.6 hPa | 0 mm | - | - | - |
| 1777501083 | 10° C | 55% | 1026.5 hPa | 0 mm | - | - | - |
| 1777482543 | 16.67° C | 36% | 1025.6 hPa | 0 mm | - | - | - |
| 1777481237 | 17.22° C | 35% | 1025.7 hPa | 0 mm | - | - | - |
| 1777478403 | 17.78° C | 35% | 1025.9 hPa | 0 mm | - | - | - |
| 1777475478 | 17.78° C | 35% | 1025.9 hPa | 0 mm | - | - | - |
| 1777474443 | 17.78° C | 35% | 1026.1 hPa | 0 mm | - | - | - |
| 1777473903 | 17.78° C | 35% | 1026.1 hPa | 0 mm | - | - | - |
| 1777472283 | 17.78° C | 35% | 1026.5 hPa | 0 mm | - | - | - |
| 1777470303 | 17.78° C | 35% | 1026.5 hPa | 0 mm | - | - | - |
| 1777468277 | 17.78° C | 37% | 1026.6 hPa | 0 mm | - | - | - |
| 1777466297 | 17.78° C | 38% | 1026.9 hPa | 0 mm | - | - | - |
* Rain latest hour (hover to see other rain measurements)
** Current wind speed in m/s (hover to see current wind gust speed)